• Join FlightAware (Why Join?)
  • Login
  • US Flag 
03:44PM EDT


 

Airport Tracker/Info


-or-


 

Live Flight TrackerFlight Track Log ✈ AAL2345 ✈ 18-Apr-2013 ✈ KORD - KDFW

Flight Track Log - Related Links

Times and Time Zones

All times are in EDT time to prevent confusion due to time zone crossing. See the AAL2345 flight status page for this flight to view local times or setup timezone preferences in your user account.

Time Position Orientation Groundspeed Altitude Reporting Facility
EDT Latitude Longitude Course Direction KTS MPH feet Rate Location/Type
07:29PM 41.9333 -87.9333 254° West 165 190 2,800  Level Chicago TRACON
07:30PM 41.9000 -87.9833 228° Southwest 197 227 4,800 1,080 Climbing Chicago TRACON
07:31PM 41.8969 -88.2491 255° West  Level FlightAware Approximate
07:31PM 41.9000 -88.0833 270° West 253 291 5,000  Level Chicago TRACON
07:32PM 41.8648 -88.3630 242° Southwest  Level FlightAware Approximate
07:32PM 41.9156 -88.1881 281° West 256 295 6,300  Level Chicago Center
07:33PM 41.8344 -88.4779 255° West  Level FlightAware Approximate
07:33PM 41.9222 -88.3058 274° West 267 307 9,500  Level Chicago Center
07:34PM 41.8086 -88.5954 254° West  Level FlightAware Approximate
07:34PM 41.9047 -88.4022 256° West 268 308 11,600  Level Chicago Center
07:35PM 41.8828 -88.4961 253° West 268 308 14,400 2,340 Climbing Chicago Center
07:36PM 41.8594 -88.5872 251° West 262 302 16,400 2,040 Climbing Chicago Center
07:37PM 41.8350 -88.6839 251° West 274 315 18,600 1,860 Climbing Chicago Center
07:38PM 41.8100 -88.7853 252° West 287 330 20,300 1,500 Climbing Chicago Center
07:39PM 41.7769 -88.9156 251° West 307 353 21,700 1,320 Climbing Chicago Center
07:40PM 41.7475 -89.0308 251° West 326 375 23,100 1,260 Climbing Chicago Center
07:41PM 41.7169 -89.1489 251° West 336 387 24,400 1,260 Climbing Chicago Center
07:42PM 41.6853 -89.2714 251° West 349 402 25,800 1,260 Climbing Chicago Center
07:43PM 41.6547 -89.3956 252° West 354 407 27,000 1,080 Climbing Chicago Center
07:44PM 41.6217 -89.5211 251° West 360 414 28,100 1,200 Climbing Chicago Center
07:45PM 41.5878 -89.6467 250° West 364 419 29,500 1,320 Climbing Chicago Center
07:46PM 41.5489 -89.7961 251° West 360 414 30,900 1,020 Climbing Chicago Center
07:47PM 41.5167 -89.9181 251° West 354 407 31,700 480 Climbing Chicago Center
07:48PM 41.4822 -90.0436 250° West 357 411 32,000 120 Climbing Chicago Center
07:49PM 41.4483 -90.1717 251° West 363 418 32,000  Level Chicago Center
07:50PM 41.4139 -90.3008 250° West 368 423 32,000  Level Chicago Center
07:51PM 41.3786 -90.4319 250° West 374 430 32,000  Level Chicago Center
07:52PM 41.3422 -90.5625 250° West 377 434 32,000  Level Chicago Center
07:53PM 41.2831 -90.7044 241° Southwest 362 417 32,000  Level Chicago Center
07:55PM 41.2225 -90.8058 232° Southwest 353 406 32,000  Level Chicago Center
07:56PM 41.1631 -90.9075 232° Southwest 350 403 32,000  Level Chicago Center
07:57PM 41.1028 -91.0089 232° Southwest 351 404 32,000  Level Chicago Center
07:58PM 41.0411 -91.1069 230° Southwest 348 400 32,000  Level Chicago Center
07:59PM 40.9789 -91.2031 229° Southwest 345 397 32,000  Level Chicago Center
08:00PM 40.9075 -91.3153 230° Southwest 347 399 32,000  Level Chicago Center
08:01PM 40.8447 -91.4103 229° Southwest 345 397 32,000  Level Chicago Center
08:02PM 40.7822 -91.5072 230° Southwest 349 402 32,000  Level Chicago Center
08:03PM 40.7214 -91.6014 230° Southwest 342 394 32,000  Level Chicago Center
08:04PM 40.6589 -91.6972 229° Southwest 345 397 32,000  Level Chicago Center
08:04PM 40.6092 -91.7728 229° Southwest 343 395 32,000  Level Kansas City Center
08:05PM 40.5456 -91.8672 228° Southwest 345 397 32,000  Level Kansas City Center
08:07PM 40.4825 -91.9636 229° Southwest 348 400 32,000  Level Kansas City Center
08:08PM 40.4189 -92.0583 229° Southwest 347 399 32,000  Level Kansas City Center
08:09PM 40.3569 -92.1533 229° Southwest 345 397 32,000  Level Kansas City Center
08:10PM 40.2811 -92.2689 229° Southwest 347 399 32,000  Level Kansas City Center
08:11PM 40.2178 -92.3628 229° Southwest 347 399 32,000  Level Kansas City Center
08:12PM 40.1575 -92.4542 229° Southwest 346 398 32,000  Level Kansas City Center
08:13PM 40.0853 -92.5589 228° Southwest 347 399 32,000  Level Kansas City Center
08:14PM 40.0250 -92.6486 229° Southwest 344 396 32,000  Level Kansas City Center
08:15PM 39.9603 -92.7425 228° Southwest 346 398 32,000  Level Kansas City Center
08:16PM 39.8972 -92.8375 229° Southwest 347 399 32,000  Level Kansas City Center
08:17PM 39.8336 -92.9297 228° Southwest 346 398 32,000  Level Kansas City Center
08:18PM 39.7586 -93.0408 229° Southwest 343 395 32,000  Level Kansas City Center
08:19PM 39.6939 -93.1342 228° Southwest 347 399 32,000  Level Kansas City Center
08:20PM 39.6314 -93.2258 228° Southwest 343 395 32,000  Level Kansas City Center
08:21PM 39.5689 -93.3164 228° Southwest 340 391 32,000  Level Kansas City Center
08:22PM 39.5058 -93.4078 228° Southwest 342 394 32,000  Level Kansas City Center
08:23PM 39.4433 -93.4986 228° Southwest 340 391 32,000  Level Kansas City Center
08:24PM 39.3692 -93.6069 228° Southwest 337 388 32,000  Level Kansas City Center
08:25PM 39.3056 -93.6972 228° Southwest 340 391 32,000  Level Kansas City Center
08:26PM 39.2458 -93.7839 228° Southwest 340 391 32,000  Level Kansas City Center
08:27PM 39.1747 -93.8831 227° Southwest 337 388 32,000  Level Kansas City Center
08:28PM 39.1150 -93.9692 228° Southwest 336 387 32,000  Level Kansas City Center
08:29PM 39.0439 -94.0689 227° Southwest 337 388 32,000  Level Kansas City Center
08:30PM 38.9842 -94.1542 228° Southwest 336 387 32,000  Level Kansas City Center
08:31PM 38.9233 -94.2389 227° Southwest 335 386 32,000  Level Kansas City Center
08:32PM 38.8536 -94.3372 228° Southwest 333 383 32,000  Level Kansas City Center
08:33PM 38.7936 -94.4206 227° Southwest 331 381 32,000  Level Kansas City Center
08:34PM 38.7236 -94.5197 228° Southwest 334 384 32,000  Level Kansas City Center
08:35PM 38.6633 -94.6031 227° Southwest 333 383 32,000  Level Kansas City Center
08:36PM 38.5933 -94.7006 227° Southwest 332 382 32,000  Level Kansas City Center
08:37PM 38.5322 -94.7853 227° Southwest 336 387 32,000  Level Kansas City Center
08:38PM 38.4714 -94.8672 227° Southwest 334 384 32,000  Level Kansas City Center
08:39PM 38.4003 -94.9664 228° Southwest 338 389 32,000  Level Kansas City Center
08:41PM 38.3389 -95.0500 227° Southwest 337 388 32,000  Level Kansas City Center
08:42PM 38.2672 -95.1486 227° Southwest 337 388 32,000  Level Kansas City Center
08:43PM 38.2056 -95.2347 228° Southwest 339 390 32,000  Level Kansas City Center
08:44PM 38.1419 -95.3203 227° Southwest 345 397 32,000  Level Kansas City Center
08:45PM 38.0686 -95.4197 227° Southwest 346 398 32,000  Level Kansas City Center
08:46PM 38.0053 -95.5058 227° Southwest 346 398 32,000  Level Kansas City Center
08:47PM 37.9353 -95.5992 226° Southwest 350 403 32,000  Level Kansas City Center
08:48PM 37.8692 -95.6875 227° Southwest 348 400 32,000  Level Kansas City Center
08:49PM 37.8028 -95.7772 227° Southwest 349 402 32,000  Level Kansas City Center
08:50PM 37.7342 -95.8689 227° Southwest 356 410 32,000  Level Kansas City Center
08:51PM 37.6536 -95.9769 227° Southwest 353 406 32,000  Level Kansas City Center
08:52PM 37.5850 -96.0664 226° Southwest 353 406 32,000  Level Kansas City Center
08:53PM 37.5178 -96.1567 227° Southwest 353 406 32,000  Level Kansas City Center
08:54PM 37.4500 -96.2458 226° Southwest 353 406 32,000  Level Kansas City Center
08:55PM 37.3689 -96.3169 215° Southwest 359 413 32,000  Level Kansas City Center
08:56PM 37.2789 -96.3731 206° Southwest 360 414 32,000  Level Kansas City Center
08:57PM 37.1908 -96.4322 208° Southwest 358 412 32,000  Level Kansas City Center
08:58PM 37.0847 -96.5031 208° Southwest 359 413 32,000  Level Kansas City Center
08:59PM 36.9967 -96.5603 207° Southwest 359 413 32,000  Level Kansas City Center
09:00PM 36.9086 -96.6183 208° Southwest 358 412 32,000  Level Kansas City Center
09:01PM 36.8206 -96.6764 208° Southwest 358 412 32,000  Level Kansas City Center
09:02PM 36.7333 -96.7336 208° Southwest 355 409 32,000  Level Kansas City Center
09:03PM 36.6456 -96.7914 208° Southwest 355 409 32,000  Level Kansas City Center
09:04PM 36.5481 -96.8547 208° Southwest 356 410 32,000  Level Kansas City Center
09:05PM 36.4600 -96.9125 208° Southwest 357 411 32,000  Level Kansas City Center
09:06PM 36.3719 -96.9694 208° Southwest 357 411 32,000  Level Kansas City Center
09:07PM 36.2844 -97.0247 207° Southwest 356 410 32,000  Level Kansas City Center
09:08PM 36.1972 -97.0808 207° Southwest 354 407 32,000  Level Kansas City Center
09:09PM 36.1097 -97.1353 207° Southwest 353 406 32,000  Level Kansas City Center
09:10PM 36.0150 -97.2186 215° Southwest 350 403 32,000  Level Kansas City Center
09:11PM 35.9431 -97.2956 221° Southwest 345 397 32,000  Level Kansas City Center
09:12PM 35.8697 -97.3728 220° Southwest 347 399 32,000  Level Kansas City Center
09:13PM 35.7953 -97.4506 220° Southwest 351 404 32,000  Level Kansas City Center
09:14PM 35.7253 -97.5208 219° Southwest 352 405 32,000  Level Fort Worth Center
09:15PM 35.6356 -97.5489 194° South 358 412 32,000  Level Fort Worth Center
09:16PM 35.5333 -97.5717 190° South 369 425 32,000  Level Fort Worth Center
09:17PM 35.4331 -97.5969 192° South 374 430 32,000  Level Fort Worth Center
09:18PM 35.3353 -97.6119 187° South 374 430 32,000  Level Fort Worth Center
09:19PM 35.2247 -97.5939 172° South 363 418 32,000  Level Fort Worth Center
09:20PM 35.1244 -97.5811 174° South 363 418 32,000  Level Fort Worth Center
09:21PM 35.0264 -97.5656 173° South 368 423 32,000  Level Fort Worth Center
09:22PM 34.9286 -97.5528 174° South 368 423 32,000  Level Fort Worth Center
09:23PM 34.8306 -97.5375 173° South 363 418 32,000 -780 Level Fort Worth Center
09:24PM 34.7303 -97.5222 173° South 363 418 30,500 -1,620 Descending Fort Worth Center
09:25PM 34.6261 -97.5069 173° South 374 430 28,800 -1,800 Descending Fort Worth Center
09:26PM 34.5217 -97.4942 174° South 379 436 27,000 -1,800 Descending Fort Worth Center
09:27PM 34.4217 -97.4789 173° South 379 436 25,200 -1,500 Descending Fort Worth Center
09:28PM 34.3214 -97.4689 175° South 366 421 24,000 -600 Descending Fort Worth Center
09:29PM 34.2400 -97.4989 197° South 322 371 24,000 -540 Level Fort Worth Center
09:30PM 34.1567 -97.5364 200° South 322 371 23,000 -1,020 Descending Fort Worth Center
09:31PM 34.0772 -97.5739 201° Southwest 317 365 22,000 -1,020 Descending Fort Worth Center
09:32PM 33.9936 -97.6139 202° Southwest 322 371 21,000 -900 Descending Fort Worth Center
09:33PM 33.9186 -97.6489 201° Southwest 322 371 20,200 -540 Descending Fort Worth Center
09:34PM 33.8328 -97.6861 200° South 322 371 20,000 -120 Descending Fort Worth Center
09:35PM 33.7556 -97.7233 202° Southwest 327 376 20,000  Level Fort Worth Center
09:36PM 33.6825 -97.7581 202° Southwest 304 350 20,000  Level Fort Worth Center
09:37PM 33.6114 -97.7900 201° Southwest 277 319 20,000 -600 Level Fort Worth Center
09:38PM 33.5319 -97.8222 199° South 271 312 18,900 -1,140 Descending Fort Worth Center
09:39PM 33.4547 -97.8292 184° South 271 312 17,800 -1,560 Descending Fort Worth Center
09:40PM 33.3903 -97.7492 134° Southeast 277 319 15,800 -1,980 Descending Fort Worth Center
09:41PM 33.3383 -97.6497 122° Southeast 322 371 13,900 -2,040 Descending Fort Worth Center
09:42PM 33.2883 -97.5453 120° Southeast 350 403 11,800 -1,500 Descending Fort Worth Center
09:43PM 33.2342 -97.4681 130° Southeast 345 397 11,000 -420 Descending Fort Worth Center
09:44PM 33.1611 -97.3836 136° Southeast 327 376 11,000  Level Fort Worth Center
09:45PM 33.1025 -97.3192 137° Southeast 322 371 11,000  Level Fort Worth Center
09:46PM 33.0336 -97.2325 133° Southeast 322 371 11,000 -240 Level Fort Worth Center
09:47PM 32.9833 -97.1708 134° Southeast 310 357 10,600 -960 Descending Fort Worth Center
09:48PM 32.9186 -97.1386 157° South 245 282 9,100 -1,500 Descending Fort Worth Center
09:49PM 32.8436 -97.1464 185° South 245 282 7,600 -1,080 Descending Fort Worth Center
09:50PM 32.7747 -97.1614 190° South 245 282 7,000 -300 Descending Fort Worth Center
09:51PM 32.7142 -97.1689 186° South 250 288 7,000 -360 Level Fort Worth Center
09:52PM 32.6453 -97.1692 180° South 235 270 6,300 -540 Descending Fort Worth Center
09:55PM 32.6000 -97.0667 118° Southeast 189 217 5,200 -720 Descending Dallas / Fort Worth TRACON
09:56PM 32.6500 -97.0333 29° Northeast 182 209 3,900 -960 Descending Dallas / Fort Worth TRACON
09:57PM 32.7000 -97.0333 360° North 169 194 3,200 -600 Descending Dallas / Fort Worth TRACON
09:58PM 32.7500 -97.0333 360° North 150 173 2,800 -420 Descending Dallas / Fort Worth TRACON